Ana Sayfa
METAR-TAF:

METAR-TAF

Havaalanları :

Tunus-Kartaca Uluslararası Havalimanı

Tunus, Tunus

Enlem: 36-50N, Boylam: 010-14E, yükseklik: 3 m

Güncel hava durumu gözlemi

Rapor saat 06:00 UTC de 22 dakika önce yapıldı.
Rüzgar güney/güneybatıdan 4 kt
Sıcaklık 9°C
Nem 81%
Basınç 1027 hPa
Görüş mesafesi 10 km veya daha fazla
3300 ft yükseklikte az bulutlu

METAR: DTTA 240600Z 20004KT 9999 FEW033 09/06 Q1027

Saat: 07:22 (06:22 UTC)

Tahmin

Rapor saat 05:00 UTC de 1 saat ve 22 dakika önce yapıldı.
Ayın 24'si saat 06 UTC'den ayın 25'si saat 06 UTC'ye kadar geçerli Tahmin
Rüzgar güneydan 6 kt
Görüş mesafesi 10 km veya daha fazla
3300 ft yükseklikte az bulutlu
Dönüşüyor
ayın 24'si saat 10 UTC'den ayın 24'si saat 12 UTC'ye kadar
Rüzgar kuzey/kuzeybatıdan 15 kt
Dönüşüyor
ayın 24'si saat 15 UTC'den ayın 24'si saat 17 UTC'ye kadar
Rüzgar kuzeydan 5 kt

TAF: DTTA 240500Z 2406/2506 19006KT 9999 FEW033 BECMG 2410/2412 33015KT BECMG 2415/2417 35005KT

4.000'den fazla havaalanı için hava durumu gözlemleri ve tahminleri (METAR ve TAF raporları).

Kullanılabilir istasyonlar harita üzerinde sarı ve kırmızı noktalarla gösterilir.

İstasyonun adını görmek için fareyi noktanın üzerinde gezdirin.

Sonrasında hava gözlem ve tahminlerini görmek için tıklayın.

Haritayı değiştirmek için: yaklaştırmak için siyah artı işaretli yeşil düğmeye ve uzaklaştırmak için de eksi işaretli düğmeye hızla tıklayın; bitişik haritalar için yeşil okları kullanın.


METAR-TAF: